Time;durP1;ratioP1;P1;durP2;ratioP2;P2;SDS_P1;SDS_P2;PMS_P1;PMS_P2;Temp;Humidity;BMP_temperature;BMP_pressure;BME280_temperature;BME280_humidity;BME280_pressure;Samples;Min_cycle;Max_cycle;Signal;HPM_P1;HPM_P2
2021/12/02 00:00:23;;;;;;;2.67;1.20;;;;;;;;;;5054278;28;20201;-59
2021/12/02 00:02:52;;;;;;;4.20;1.30;;;;;;;;;;5054279;28;20221;-58
2021/12/02 00:05:19;;;;;;;3.05;1.13;;;;;;;;;;5054204;28;20198;-58
2021/12/02 00:07:46;;;;;;;3.55;1.60;;;;;;;;;;5053726;28;20225;-58
2021/12/02 00:10:14;;;;;;;4.10;1.50;;;;;;;;;;5054092;28;20201;-59
2021/12/02 00:12:41;;;;;;;9.77;1.40;;;;;;;;;;5053885;28;20221;-58
2021/12/02 00:15:17;;;;;;;6.35;1.55;;;;;;;;;;5054366;28;20205;-59
2021/12/02 00:17:52;;;;;;;3.35;1.05;;;;;;;;;;5054373;28;20236;-58
2021/12/02 00:23:25;;;;;;;2.35;1.08;;;;;;;;;;5053867;28;20228;-58
2021/12/02 00:25:53;;;;;;;1.58;1.42;;;;;;;;;;5053881;28;20281;-58
2021/12/02 00:28:20;;;;;;;4.88;1.30;;;;;;;;;;5053718;28;20228;-57
2021/12/02 00:30:48;;;;;;;12.32;2.30;;;;;;;;;;5053842;28;20202;-57
2021/12/02 00:33:17;;;;;;;3.75;1.17;;;;;;;;;;5054020;28;20228;-58
2021/12/02 00:35:46;;;;;;;3.20;1.42;;;;;;;;;;5053808;28;20205;-56
2021/12/02 00:38:15;;;;;;;5.78;1.63;;;;;;;;;;5053613;28;20193;-58
2021/12/02 00:40:43;;;;;;;3.05;1.30;;;;;;;;;;5054480;28;20232;-57
2021/12/02 00:43:11;;;;;;;4.85;1.35;;;;;;;;;;5054058;28;20222;-58
2021/12/02 00:45:40;;;;;;;3.38;1.48;;;;;;;;;;5053963;28;20212;-58
2021/12/02 00:48:08;;;;;;;2.60;1.40;;;;;;;;;;5054147;28;20225;-58
2021/12/02 00:50:36;;;;;;;2.15;1.15;;;;;;;;;;5054061;28;20285;-58
2021/12/02 00:53:05;;;;;;;3.70;1.55;;;;;;;;;;5053773;28;20222;-58
2021/12/02 00:55:33;;;;;;;1.50;1.25;;;;;;;;;;5053809;28;20206;-58
2021/12/02 00:58:01;;;;;;;5.97;1.25;;;;;;;;;;5053351;28;20193;-57
2021/12/02 01:00:28;;;;;;;3.25;1.15;;;;;;;;;;5053535;28;20206;-58
2021/12/02 01:02:55;;;;;;;6.53;1.90;;;;;;;;;;5053096;28;20217;-58
2021/12/02 01:05:23;;;;;;;2.75;1.50;;;;;;;;;;5053044;28;20198;-58
2021/12/02 01:07:51;;;;;;;7.40;2.85;;;;;;;;;;5053072;28;20716;-57
2021/12/02 01:10:20;;;;;;;3.20;1.25;;;;;;;;;;5053184;28;20277;-58
2021/12/02 01:12:49;;;;;;;6.45;1.85;;;;;;;;;;5053200;28;20590;-58
2021/12/02 01:15:16;;;;;;;3.90;1.27;;;;;;;;;;5053199;28;20665;-58
2021/12/02 01:17:44;;;;;;;2.17;1.20;;;;;;;;;;5053605;28;20197;-57
2021/12/02 01:20:12;;;;;;;8.07;1.80;;;;;;;;;;5053474;28;20209;-57
2021/12/02 01:22:40;;;;;;;3.80;1.67;;;;;;;;;;5053262;28;20740;-58
2021/12/02 01:25:08;;;;;;;3.45;2.15;;;;;;;;;;5053648;28;20201;-57
2021/12/02 01:27:39;;;;;;;5.43;1.30;;;;;;;;;;5053954;28;20222;-58
2021/12/02 01:30:06;;;;;;;7.10;1.98;;;;;;;;;;5053595;28;20224;-58
2021/12/02 01:32:34;;;;;;;6.90;1.88;;;;;;;;;;5053690;28;20240;-59
2021/12/02 01:35:03;;;;;;;7.13;1.70;;;;;;;;;;5053781;28;20205;-59
2021/12/02 01:37:30;;;;;;;8.68;2.03;;;;;;;;;;5053569;28;20197;-58
2021/12/02 01:39:57;;;;;;;2.38;1.40;;;;;;;;;;5053360;28;20206;-58
2021/12/02 01:42:27;;;;;;;5.32;1.13;;;;;;;;;;5053044;28;20728;-58
2021/12/02 01:44:56;;;;;;;3.83;1.52;;;;;;;;;;5053065;28;20205;-58
2021/12/02 01:47:25;;;;;;;3.08;0.93;;;;;;;;;;5053346;28;20218;-59
2021/12/02 01:49:55;;;;;;;3.47;1.83;;;;;;;;;;5053374;28;20271;-58
2021/12/02 01:52:26;;;;;;;2.28;1.30;;;;;;;;;;5053167;28;20253;-58
2021/12/02 01:55:04;;;;;;;3.40;1.48;;;;;;;;;;5052820;28;20199;-58
2021/12/02 01:57:32;;;;;;;3.40;1.50;;;;;;;;;;5053208;28;20181;-58
2021/12/02 02:00:06;;;;;;;4.80;1.15;;;;;;;;;;5052715;28;20212;-58
2021/12/02 02:02:36;;;;;;;4.43;1.23;;;;;;;;;;5052763;28;20229;-59
2021/12/02 02:05:08;;;;;;;3.58;1.20;;;;;;;;;;5053049;28;20557;-59
2021/12/02 02:07:35;;;;;;;3.95;1.85;;;;;;;;;;5052718;28;20202;-58
2021/12/02 02:10:02;;;;;;;7.10;1.63;;;;;;;;;;5052620;28;20209;-58
2021/12/02 02:12:30;;;;;;;3.75;2.03;;;;;;;;;;5053315;28;20232;-58
2021/12/02 02:14:58;;;;;;;6.93;1.95;;;;;;;;;;5053197;28;20205;-58
2021/12/02 02:17:29;;;;;;;4.55;1.85;;;;;;;;;;5053040;28;20204;-58
2021/12/02 02:19:57;;;;;;;6.88;1.50;;;;;;;;;;5053161;28;20654;-58
2021/12/02 02:22:25;;;;;;;4.85;1.40;;;;;;;;;;5053125;28;20234;-58
2021/12/02 02:24:53;;;;;;;3.42;1.67;;;;;;;;;;5053496;28;20186;-58
2021/12/02 02:27:21;;;;;;;4.82;1.50;;;;;;;;;;5053042;28;20799;-57
2021/12/02 02:29:49;;;;;;;2.80;1.30;;;;;;;;;;5052732;28;20206;-58
2021/12/02 02:32:16;;;;;;;12.18;1.90;;;;;;;;;;5054264;28;20222;-58
2021/12/02 02:34:43;;;;;;;6.60;1.60;;;;;;;;;;5056118;28;20668;-57
2021/12/02 02:37:10;;;;;;;6.22;1.90;;;;;;;;;;5055894;28;20205;-57
2021/12/02 02:39:39;;;;;;;6.35;1.55;;;;;;;;;;5056406;28;20202;-57
2021/12/02 02:42:08;;;;;;;5.45;1.35;;;;;;;;;;5056512;28;21542;-57
2021/12/02 02:44:36;;;;;;;6.07;1.50;;;;;;;;;;5056604;28;20296;-56
2021/12/02 02:47:04;;;;;;;3.38;1.25;;;;;;;;;;5056288;28;20202;-57
2021/12/02 02:49:31;;;;;;;4.10;1.55;;;;;;;;;;5055715;28;20727;-58
2021/12/02 02:51:59;;;;;;;5.93;1.20;;;;;;;;;;5055968;28;20205;-58
2021/12/02 02:54:26;;;;;;;4.18;1.50;;;;;;;;;;5055977;28;20208;-57
2021/12/02 02:56:58;;;;;;;6.90;2.20;;;;;;;;;;5055762;28;20198;-58
2021/12/02 02:59:31;;;;;;;5.03;1.10;;;;;;;;;;5055563;28;20208;-57
2021/12/02 03:02:14;;;;;;;4.75;1.70;;;;;;;;;;5055812;28;20197;-57
2021/12/02 03:04:46;;;;;;;2.92;1.35;;;;;;;;;;5056038;28;20225;-57
2021/12/02 03:07:21;;;;;;;3.75;1.52;;;;;;;;;;5055860;28;20182;-57
2021/12/02 03:09:58;;;;;;;3.75;1.73;;;;;;;;;;5056447;28;20205;-58
2021/12/02 03:12:31;;;;;;;2.45;1.30;;;;;;;;;;5056465;28;20316;-57
2021/12/02 03:17:44;;;;;;;4.10;1.58;;;;;;;;;;5055691;28;20261;-58
2021/12/02 03:20:12;;;;;;;7.55;1.60;;;;;;;;;;5055989;28;20210;-58
2021/12/02 03:22:39;;;;;;;7.03;1.70;;;;;;;;;;5055123;28;20233;-58
2021/12/02 03:25:08;;;;;;;5.07;1.45;;;;;;;;;;5055317;28;20206;-57
2021/12/02 03:27:37;;;;;;;4.75;1.38;;;;;;;;;;5055216;28;20259;-57
2021/12/02 03:30:07;;;;;;;3.70;1.63;;;;;;;;;;5054887;28;20669;-59
2021/12/02 03:32:34;;;;;;;6.65;1.33;;;;;;;;;;5055217;28;20261;-58
2021/12/02 03:35:01;;;;;;;5.70;1.70;;;;;;;;;;5054927;28;20267;-59
2021/12/02 03:37:29;;;;;;;12.18;1.73;;;;;;;;;;5054763;28;20205;-58
2021/12/02 03:39:56;;;;;;;5.93;1.50;;;;;;;;;;5054871;28;20673;-58
2021/12/02 03:42:23;;;;;;;1.70;1.02;;;;;;;;;;5055030;28;20232;-58
2021/12/02 03:44:52;;;;;;;2.63;1.23;;;;;;;;;;5054730;28;20209;-58
2021/12/02 03:47:19;;;;;;;5.55;1.20;;;;;;;;;;5055048;28;20213;-57
2021/12/02 03:49:47;;;;;;;5.00;1.40;;;;;;;;;;5054965;28;20221;-57
2021/12/02 03:52:14;;;;;;;8.70;1.20;;;;;;;;;;5054407;28;20741;-57
2021/12/02 03:54:41;;;;;;;4.43;1.30;;;;;;;;;;5054838;28;20205;-57
2021/12/02 03:57:08;;;;;;;3.75;1.15;;;;;;;;;;5054580;28;20251;-57
2021/12/02 03:59:36;;;;;;;6.68;1.50;;;;;;;;;;5054388;28;20205;-57
2021/12/02 04:02:06;;;;;;;4.10;1.40;;;;;;;;;;5054215;28;20197;-58
2021/12/02 04:04:33;;;;;;;5.65;1.80;;;;;;;;;;5054826;28;20669;-58
2021/12/02 04:09:01;;;;;;;5.45;1.55;;;;;;;;;;5091732;27;20541;-57
2021/12/02 04:11:32;;;;;;;6.25;1.60;;;;;;;;;;5091150;28;20188;-57
2021/12/02 04:14:09;;;;;;;5.63;1.20;;;;;;;;;;5091734;28;20294;-57
2021/12/02 04:16:39;;;;;;;5.35;1.38;;;;;;;;;;5093050;28;20284;-56
2021/12/02 04:19:07;;;;;;;3.58;1.65;;;;;;;;;;5090851;28;20694;-56
2021/12/02 04:21:34;;;;;;;7.75;1.80;;;;;;;;;;5096641;22;20280;-60
2021/12/02 04:24:03;;;;;;;7.70;2.75;;;;;;;;;;5050558;28;20206;-60
2021/12/02 04:26:31;;;;;;;5.10;1.50;;;;;;;;;;5050578;28;20205;-62
2021/12/02 04:28:58;;;;;;;5.95;2.28;;;;;;;;;;5050398;28;20586;-61
2021/12/02 04:31:25;;;;;;;3.45;1.50;;;;;;;;;;5050572;28;20230;-61
2021/12/02 04:33:52;;;;;;;3.45;1.40;;;;;;;;;;5050498;28;20209;-60
2021/12/02 04:36:20;;;;;;;3.67;1.42;;;;;;;;;;5050186;28;20697;-61
2021/12/02 04:38:47;;;;;;;2.15;1.20;;;;;;;;;;5050648;28;20198;-61
2021/12/02 04:41:17;;;;;;;6.10;1.77;;;;;;;;;;5050055;28;20312;-62
2021/12/02 04:43:45;;;;;;;2.55;1.20;;;;;;;;;;5050256;28;20640;-61
2021/12/02 04:46:12;;;;;;;6.55;1.73;;;;;;;;;;5050375;28;20202;-61
2021/12/02 04:48:39;;;;;;;4.70;1.77;;;;;;;;;;5049974;28;20808;-61
2021/12/02 04:51:06;;;;;;;4.20;1.67;;;;;;;;;;5050324;28;20225;-62
2021/12/02 04:53:34;;;;;;;4.28;1.73;;;;;;;;;;5050499;28;20213;-62
2021/12/02 04:56:01;;;;;;;6.00;1.60;;;;;;;;;;5050058;28;20216;-62
2021/12/02 04:58:30;;;;;;;5.90;1.30;;;;;;;;;;5050379;28;20220;-61
2021/12/02 05:00:58;;;;;;;12.32;1.42;;;;;;;;;;5051695;28;20221;-62
2021/12/02 05:03:25;;;;;;;2.35;1.48;;;;;;;;;;5051499;28;20279;-62
2021/12/02 05:05:52;;;;;;;4.80;1.88;;;;;;;;;;5053717;28;20206;-62
2021/12/02 05:08:20;;;;;;;6.80;1.63;;;;;;;;;;5055748;28;20225;-61
2021/12/02 05:10:47;;;;;;;6.55;1.50;;;;;;;;;;5054313;28;20198;-60
2021/12/02 05:13:14;;;;;;;4.68;1.85;;;;;;;;;;5056681;28;20228;-61
2021/12/02 05:15:43;;;;;;;4.25;1.27;;;;;;;;;;5053862;28;20216;-62
2021/12/02 05:18:11;;;;;;;4.32;1.10;;;;;;;;;;5056635;28;20201;-61
2021/12/02 05:20:38;;;;;;;5.07;1.70;;;;;;;;;;5041143;28;20666;-61
2021/12/02 05:23:05;;;;;;;4.43;1.42;;;;;;;;;;5039142;28;20677;-61
2021/12/02 05:25:33;;;;;;;5.63;1.45;;;;;;;;;;5039388;28;20206;-62
2021/12/02 05:28:00;;;;;;;8.13;2.00;;;;;;;;;;5038784;28;20234;-61
2021/12/02 05:30:27;;;;;;;3.17;1.40;;;;;;;;;;5044269;28;20198;-61
2021/12/02 05:32:56;;;;;;;3.78;1.35;;;;;;;;;;5045545;28;20205;-62
2021/12/02 05:35:23;;;;;;;5.28;1.42;;;;;;;;;;5048038;28;20206;-62
2021/12/02 05:37:51;;;;;;;4.20;1.45;;;;;;;;;;5049179;28;20211;-63
2021/12/02 05:40:18;;;;;;;7.80;1.70;;;;;;;;;;5046538;28;20210;-62
2021/12/02 05:42:45;;;;;;;10.80;2.03;;;;;;;;;;5047190;28;20223;-62
2021/12/02 05:45:13;;;;;;;3.85;1.48;;;;;;;;;;5046890;28;20209;-61
2021/12/02 05:47:40;;;;;;;4.53;1.90;;;;;;;;;;5048025;28;20222;-62
2021/12/02 05:50:09;;;;;;;9.70;1.52;;;;;;;;;;5047564;28;20214;-61
2021/12/02 05:52:37;;;;;;;3.10;1.90;;;;;;;;;;5046850;28;20257;-62
2021/12/02 05:55:04;;;;;;;8.13;1.95;;;;;;;;;;5044907;28;20202;-62
2021/12/02 05:57:32;;;;;;;4.95;1.88;;;;;;;;;;5042958;28;20202;-61
2021/12/02 05:59:59;;;;;;;6.15;1.58;;;;;;;;;;5035496;28;20206;-62
2021/12/02 06:02:27;;;;;;;9.77;1.73;;;;;;;;;;5035505;28;20234;-61
2021/12/02 06:04:54;;;;;;;4.40;1.50;;;;;;;;;;5036673;28;20226;-61
2021/12/02 06:07:23;;;;;;;2.28;1.55;;;;;;;;;;5035422;28;20213;-62
2021/12/02 06:09:53;;;;;;;4.18;1.13;;;;;;;;;;5035668;28;20209;-61
2021/12/02 06:12:20;;;;;;;12.10;2.25;;;;;;;;;;5035562;28;20760;-62
2021/12/02 06:14:47;;;;;;;4.20;1.52;;;;;;;;;;5037037;28;20206;-61
2021/12/02 06:17:15;;;;;;;4.88;1.73;;;;;;;;;;5040034;28;20210;-60
2021/12/02 06:19:42;;;;;;;4.95;3.20;;;;;;;;;;5036003;28;20202;-61
2021/12/02 06:22:09;;;;;;;3.95;1.65;;;;;;;;;;5035284;28;20237;-62
2021/12/02 06:24:44;;;;;;;9.18;2.35;;;;;;;;;;5035084;28;20202;-61
2021/12/02 06:27:12;;;;;;;5.20;2.00;;;;;;;;;;5035378;28;20193;-62
2021/12/02 06:29:40;;;;;;;6.28;1.95;;;;;;;;;;5035373;28;20294;-61
2021/12/02 06:32:08;;;;;;;7.00;1.90;;;;;;;;;;5034581;28;20249;-61
2021/12/02 06:34:36;;;;;;;10.80;2.47;;;;;;;;;;5035291;28;20221;-63
2021/12/02 06:37:03;;;;;;;4.88;1.90;;;;;;;;;;5036607;28;20576;-62
2021/12/02 06:39:31;;;;;;;2.40;1.33;;;;;;;;;;5037766;28;20195;-62
2021/12/02 06:41:59;;;;;;;4.38;1.48;;;;;;;;;;5035926;28;20233;-60
2021/12/02 06:44:28;;;;;;;5.55;1.50;;;;;;;;;;5035758;28;20673;-61
2021/12/02 06:46:56;;;;;;;8.18;1.92;;;;;;;;;;5035613;28;20301;-61
2021/12/02 06:49:23;;;;;;;3.08;1.80;;;;;;;;;;5035214;28;20234;-61
2021/12/02 06:51:50;;;;;;;5.85;1.67;;;;;;;;;;5034819;28;20285;-62
2021/12/02 06:54:18;;;;;;;3.05;1.48;;;;;;;;;;5035127;28;20206;-62
2021/12/02 06:56:45;;;;;;;7.55;1.83;;;;;;;;;;5035172;28;20198;-63
2021/12/02 06:59:13;;;;;;;7.50;2.05;;;;;;;;;;5034960;28;20202;-62
2021/12/02 07:01:41;;;;;;;2.53;1.48;;;;;;;;;;5035175;28;20249;-62
2021/12/02 07:04:09;;;;;;;10.13;1.90;;;;;;;;;;5035059;28;20198;-61
2021/12/02 07:06:38;;;;;;;4.00;1.90;;;;;;;;;;5035587;28;20237;-61
2021/12/02 07:09:06;;;;;;;5.63;2.03;;;;;;;;;;5034459;28;20254;-61
2021/12/02 07:11:33;;;;;;;6.07;1.95;;;;;;;;;;5034637;28;20222;-61
2021/12/02 07:14:04;;;;;;;5.78;2.10;;;;;;;;;;5035532;28;20208;-63
2021/12/02 07:16:33;;;;;;;6.55;1.95;;;;;;;;;;5035107;28;20197;-62
2021/12/02 07:19:00;;;;;;;12.10;3.22;;;;;;;;;;5035217;28;20195;-62
2021/12/02 07:21:28;;;;;;;4.70;1.95;;;;;;;;;;5034339;28;20317;-62
2021/12/02 07:23:55;;;;;;;4.85;2.08;;;;;;;;;;5034631;28;20229;-61
2021/12/02 07:26:23;;;;;;;10.02;2.60;;;;;;;;;;5034444;28;20210;-62
2021/12/02 07:28:50;;;;;;;4.13;1.88;;;;;;;;;;5034311;28;20593;-62
2021/12/02 07:31:17;;;;;;;8.98;2.47;;;;;;;;;;5035004;28;20253;-61
2021/12/02 07:33:48;;;;;;;6.53;2.15;;;;;;;;;;5034922;28;20214;-62
2021/12/02 07:36:16;;;;;;;8.38;2.60;;;;;;;;;;5034729;28;20194;-61
2021/12/02 07:38:43;;;;;;;9.45;2.75;;;;;;;;;;5034594;28;20562;-62
2021/12/02 07:41:10;;;;;;;6.18;2.50;;;;;;;;;;5034384;28;20234;-61
2021/12/02 07:43:39;;;;;;;8.65;2.83;;;;;;;;;;5035652;28;20207;-62
2021/12/02 07:46:07;;;;;;;7.80;2.80;;;;;;;;;;5036377;28;20201;-62
2021/12/02 07:48:34;;;;;;;3.40;2.25;;;;;;;;;;5039428;28;20218;-62
2021/12/02 07:51:04;;;;;;;4.60;2.20;;;;;;;;;;5039352;28;20226;-63
2021/12/02 07:53:32;;;;;;;3.47;2.10;;;;;;;;;;5040060;28;20206;-61
2021/12/02 07:56:00;;;;;;;4.07;2.20;;;;;;;;;;5044231;28;20199;-62
2021/12/02 07:58:27;;;;;;;8.45;2.45;;;;;;;;;;5042656;28;20260;-62
2021/12/02 08:00:59;;;;;;;5.43;2.75;;;;;;;;;;5037867;28;20222;-63
2021/12/02 08:03:27;;;;;;;4.20;2.05;;;;;;;;;;5038042;28;20197;-60
2021/12/02 08:05:54;;;;;;;5.57;2.45;;;;;;;;;;5037246;28;20245;-62
2021/12/02 08:08:23;;;;;;;4.63;2.00;;;;;;;;;;5033845;28;20225;-64
2021/12/02 08:10:50;;;;;;;5.80;2.40;;;;;;;;;;5035321;28;20222;-62
2021/12/02 08:13:18;;;;;;;4.50;2.03;;;;;;;;;;5042513;28;20206;-62
2021/12/02 08:15:45;;;;;;;5.03;2.42;;;;;;;;;;5034784;28;20198;-63
2021/12/02 08:18:13;;;;;;;4.07;2.53;;;;;;;;;;5034898;28;20203;-64
2021/12/02 08:20:40;;;;;;;9.80;3.05;;;;;;;;;;5035417;28;20198;-63
2021/12/02 08:23:07;;;;;;;5.10;2.88;;;;;;;;;;5035381;28;20654;-62
2021/12/02 08:25:36;;;;;;;5.85;3.45;;;;;;;;;;5035561;28;20674;-62
2021/12/02 08:28:04;;;;;;;10.52;3.10;;;;;;;;;;5035941;28;20613;-62
2021/12/02 08:30:33;;;;;;;5.97;3.80;;;;;;;;;;5035927;28;20570;-64
2021/12/02 08:33:02;;;;;;;7.07;4.30;;;;;;;;;;5035541;28;20292;-62
2021/12/02 08:35:29;;;;;;;8.45;3.30;;;;;;;;;;5035309;28;20674;-62
2021/12/02 08:38:00;;;;;;;13.52;3.75;;;;;;;;;;5034594;28;20202;-62
2021/12/02 08:40:31;;;;;;;10.65;4.30;;;;;;;;;;5036144;28;20198;-62
2021/12/02 08:43:00;;;;;;;8.82;4.55;;;;;;;;;;5034783;28;20182;-64
2021/12/02 08:45:28;;;;;;;5.10;3.70;;;;;;;;;;5034242;28;20202;-64
2021/12/02 08:47:56;;;;;;;9.98;4.60;;;;;;;;;;5034150;28;20202;-63
2021/12/02 08:50:23;;;;;;;11.60;3.92;;;;;;;;;;5033678;28;20201;-63
2021/12/02 08:52:51;;;;;;;13.50;4.45;;;;;;;;;;5033523;28;20222;-62
2021/12/02 08:55:19;;;;;;;5.75;4.47;;;;;;;;;;5036114;28;20674;-62
2021/12/02 08:57:47;;;;;;;6.55;4.03;;;;;;;;;;5037136;28;20577;-62
2021/12/02 09:00:17;;;;;;;8.13;4.20;;;;;;;;;;5037212;28;20202;-62
2021/12/02 09:02:45;;;;;;;6.90;4.32;;;;;;;;;;5037214;28;20225;-61
2021/12/02 09:05:12;;;;;;;7.32;4.30;;;;;;;;;;5037778;28;20202;-61
2021/12/02 09:07:39;;;;;;;10.75;5.25;;;;;;;;;;5036857;28;20203;-60
2021/12/02 09:10:08;;;;;;;8.05;4.43;;;;;;;;;;5036802;28;20235;-60
2021/12/02 09:12:36;;;;;;;12.00;5.20;;;;;;;;;;5036871;28;20313;-61
2021/12/02 09:15:03;;;;;;;14.40;4.70;;;;;;;;;;5037200;28;20600;-61
2021/12/02 09:17:32;;;;;;;10.20;4.20;;;;;;;;;;5037107;28;20571;-61
2021/12/02 09:19:59;;;;;;;5.47;4.20;;;;;;;;;;5036832;28;20218;-61
2021/12/02 09:22:27;;;;;;;5.10;3.45;;;;;;;;;;5036775;28;20237;-61
2021/12/02 09:24:54;;;;;;;9.73;4.00;;;;;;;;;;5040341;28;20210;-62
2021/12/02 09:27:21;;;;;;;12.20;4.70;;;;;;;;;;5041057;28;20206;-62
2021/12/02 09:29:49;;;;;;;9.88;3.70;;;;;;;;;;5042465;28;20721;-62
2021/12/02 09:32:16;;;;;;;7.00;3.75;;;;;;;;;;5042286;28;20233;-60
2021/12/02 09:34:45;;;;;;;7.93;4.28;;;;;;;;;;5037817;28;20214;-61
2021/12/02 09:37:12;;;;;;;8.00;4.00;;;;;;;;;;5037102;28;20198;-60
2021/12/02 09:39:39;;;;;;;11.15;4.32;;;;;;;;;;5037166;28;20203;-60
2021/12/02 09:42:10;;;;;;;5.75;3.38;;;;;;;;;;5036523;28;20241;-61
2021/12/02 09:44:38;;;;;;;8.00;3.53;;;;;;;;;;5035962;28;20654;-62
2021/12/02 09:47:05;;;;;;;4.82;3.40;;;;;;;;;;5038265;28;20206;-62
2021/12/02 09:49:33;;;;;;;6.28;3.40;;;;;;;;;;5040340;28;20229;-64
2021/12/02 09:52:03;;;;;;;6.45;3.65;;;;;;;;;;5037721;28;20230;-60
2021/12/02 09:54:32;;;;;;;7.80;3.65;;;;;;;;;;5036398;28;20280;-61
2021/12/02 09:57:02;;;;;;;5.60;3.25;;;;;;;;;;5036056;28;20206;-62
2021/12/02 09:59:34;;;;;;;6.57;3.30;;;;;;;;;;5035918;28;20309;-63
2021/12/02 10:02:04;;;;;;;5.15;3.05;;;;;;;;;;5035576;28;20219;-62
2021/12/02 10:04:32;;;;;;;6.60;3.50;;;;;;;;;;5035954;28;20251;-63
2021/12/02 10:07:09;;;;;;;2.63;2.42;;;;;;;;;;5035822;28;20341;-60
2021/12/02 10:09:43;;;;;;;3.97;3.20;;;;;;;;;;5035273;28;20218;-63
2021/12/02 10:12:16;;;;;;;4.88;3.20;;;;;;;;;;5036317;28;20234;-61
2021/12/02 10:14:50;;;;;;;3.60;2.33;;;;;;;;;;5037636;28;20190;-60
2021/12/02 10:17:22;;;;;;;7.55;3.10;;;;;;;;;;5037807;28;20191;-59
2021/12/02 10:20:12;;;;;;;6.20;2.95;;;;;;;;;;5037732;28;20273;-60
2021/12/02 10:22:41;;;;;;;5.15;3.10;;;;;;;;;;5079567;22;20226;-54
2021/12/02 10:25:09;;;;;;;3.75;2.60;;;;;;;;;;5034938;28;20593;-55
2021/12/02 10:27:36;;;;;;;4.22;2.85;;;;;;;;;;5034772;28;20202;-56
2021/12/02 10:30:18;;;;;;;4.90;2.75;;;;;;;;;;5034239;28;20222;-56
2021/12/02 10:32:50;;;;;;;4.88;2.95;;;;;;;;;;5034379;28;20337;-55
2021/12/02 10:35:20;;;;;;;4.60;2.95;;;;;;;;;;5035339;28;20186;-56
2021/12/02 10:37:49;;;;;;;3.17;2.55;;;;;;;;;;5034405;28;20206;-56
2021/12/02 10:40:17;;;;;;;3.50;2.67;;;;;;;;;;5034819;28;20195;-55
2021/12/02 10:42:45;;;;;;;8.38;2.95;;;;;;;;;;5034223;28;20732;-55
2021/12/02 10:45:20;;;;;;;5.00;2.90;;;;;;;;;;5035241;28;20202;-55
2021/12/02 10:47:49;;;;;;;7.07;2.92;;;;;;;;;;5034591;28;20538;-55
2021/12/02 10:50:17;;;;;;;5.07;3.00;;;;;;;;;;5034084;28;20736;-55
2021/12/02 10:52:44;;;;;;;5.10;2.60;;;;;;;;;;5034116;28;20245;-55
2021/12/02 10:55:13;;;;;;;2.88;2.50;;;;;;;;;;5034060;28;20217;-55
2021/12/02 10:57:45;;;;;;;4.55;2.35;;;;;;;;;;5034722;28;20561;-55
2021/12/02 11:00:14;;;;;;;4.03;2.25;;;;;;;;;;5034411;28;20240;-55
2021/12/02 11:02:46;;;;;;;3.35;2.50;;;;;;;;;;5033505;28;20226;-56
2021/12/02 11:05:19;;;;;;;3.63;2.28;;;;;;;;;;5033759;28;20191;-55
2021/12/02 11:07:53;;;;;;;3.45;1.77;;;;;;;;;;5033601;28;20640;-55
2021/12/02 11:10:22;;;;;;;2.78;2.10;;;;;;;;;;5033305;28;20209;-55
2021/12/02 11:12:50;;;;;;;3.38;2.55;;;;;;;;;;5033527;28;20272;-55
2021/12/02 11:15:18;;;;;;;2.72;2.30;;;;;;;;;;5033907;28;20198;-55
2021/12/02 11:17:47;;;;;;;4.20;2.80;;;;;;;;;;5033245;28;20210;-54
2021/12/02 11:20:17;;;;;;;2.65;2.40;;;;;;;;;;5034308;28;20204;-54
2021/12/02 11:22:45;;;;;;;2.88;2.58;;;;;;;;;;5032937;28;20226;-55
2021/12/02 11:25:13;;;;;;;3.15;2.35;;;;;;;;;;5033272;28;20693;-55
2021/12/02 11:27:43;;;;;;;2.83;2.20;;;;;;;;;;5033476;28;20206;-55
2021/12/02 11:30:16;;;;;;;3.22;2.40;;;;;;;;;;5033507;28;20314;-55
2021/12/02 11:32:48;;;;;;;2.55;2.35;;;;;;;;;;5033306;28;20228;-55
2021/12/02 11:35:18;;;;;;;2.85;2.50;;;;;;;;;;5033282;28;20190;-55
2021/12/02 11:37:46;;;;;;;4.60;2.65;;;;;;;;;;5033039;28;20206;-54
2021/12/02 11:40:15;;;;;;;4.78;2.92;;;;;;;;;;5033231;28;20198;-54
2021/12/02 11:42:45;;;;;;;3.95;2.55;;;;;;;;;;5033288;28;20292;-56
2021/12/02 11:45:13;;;;;;;4.40;3.08;;;;;;;;;;5033006;28;20202;-56
2021/12/02 11:47:41;;;;;;;5.25;2.80;;;;;;;;;;5033486;28;20229;-55
2021/12/02 11:50:09;;;;;;;7.97;3.35;;;;;;;;;;5032848;28;20764;-55
2021/12/02 11:52:37;;;;;;;5.55;2.60;;;;;;;;;;5033017;28;20222;-55
2021/12/02 11:55:06;;;;;;;5.18;3.03;;;;;;;;;;5033180;28;20234;-55
2021/12/02 11:57:34;;;;;;;5.03;3.28;;;;;;;;;;5032989;28;20202;-54
2021/12/02 12:00:04;;;;;;;3.45;2.47;;;;;;;;;;5032677;28;20213;-55
2021/12/02 12:02:31;;;;;;;5.13;2.78;;;;;;;;;;5032704;28;20748;-55
2021/12/02 12:05:01;;;;;;;4.38;3.20;;;;;;;;;;5032710;28;20570;-54
2021/12/02 12:07:39;;;;;;;7.38;2.72;;;;;;;;;;5032599;28;20692;-55
2021/12/02 12:10:17;;;;;;;3.17;2.85;;;;;;;;;;5032537;28;20686;-55
2021/12/02 12:12:45;;;;;;;5.47;2.63;;;;;;;;;;5032755;28;20233;-54
2021/12/02 12:15:31;;;;;;;4.10;2.42;;;;;;;;;;5032964;28;20210;-55
2021/12/02 12:17:59;;;;;;;5.65;2.50;;;;;;;;;;5032794;28;20209;-55
2021/12/02 12:20:41;;;;;;;5.40;2.60;;;;;;;;;;5033184;28;20195;-55
2021/12/02 12:23:24;;;;;;;4.35;2.40;;;;;;;;;;5033051;28;20248;-56
2021/12/02 12:26:08;;;;;;;4.50;2.42;;;;;;;;;;5033298;28;20202;-54
2021/12/02 12:29:00;;;;;;;6.40;2.85;;;;;;;;;;5033888;28;20197;-54
2021/12/02 12:31:27;;;;;;;3.67;2.45;;;;;;;;;;5036865;28;20230;-55
2021/12/02 12:33:58;;;;;;;5.00;2.70;;;;;;;;;;5036890;28;20202;-54
2021/12/02 12:36:40;;;;;;;9.57;3.33;;;;;;;;;;5037137;28;20625;-55
2021/12/02 12:39:23;;;;;;;4.28;3.03;;;;;;;;;;5036588;28;20727;-54
2021/12/02 12:42:06;;;;;;;4.85;3.97;;;;;;;;;;5034433;28;20222;-54
2021/12/02 12:44:46;;;;;;;4.55;4.05;;;;;;;;;;5036239;28;20199;-56
2021/12/02 12:47:13;;;;;;;5.53;4.47;;;;;;;;;;5036821;28;20190;-55
2021/12/02 12:49:43;;;;;;;7.07;3.95;;;;;;;;;;5036493;28;20226;-56
2021/12/02 12:52:16;;;;;;;6.00;3.92;;;;;;;;;;5036672;28;20279;-55
2021/12/02 12:54:43;;;;;;;4.53;3.90;;;;;;;;;;5036095;28;20206;-54
2021/12/02 12:57:11;;;;;;;7.18;3.90;;;;;;;;;;5036577;28;20213;-54
2021/12/02 12:59:49;;;;;;;5.13;4.63;;;;;;;;;;5036496;28;20207;-55
2021/12/02 13:02:17;;;;;;;6.10;4.80;;;;;;;;;;5036326;28;20222;-55
2021/12/02 13:04:52;;;;;;;4.97;4.53;;;;;;;;;;5036036;28;20210;-55
2021/12/02 13:07:20;;;;;;;5.45;3.78;;;;;;;;;;5036219;28;20187;-53
2021/12/02 13:09:55;;;;;;;5.00;4.57;;;;;;;;;;5035990;28;20276;-53
2021/12/02 13:12:30;;;;;;;9.35;5.63;;;;;;;;;;5036039;28;20257;-54
2021/12/02 13:14:58;;;;;;;6.25;5.45;;;;;;;;;;5035897;28;20206;-55
2021/12/02 13:17:45;;;;;;;5.50;4.05;;;;;;;;;;5035440;28;20202;-53
2021/12/02 13:20:22;;;;;;;8.57;5.05;;;;;;;;;;5035799;28;20194;-56
2021/12/02 13:23:09;;;;;;;7.57;4.15;;;;;;;;;;5035608;28;20230;-54
2021/12/02 13:25:43;;;;;;;7.20;4.70;;;;;;;;;;5035424;28;20209;-55
2021/12/02 13:28:17;;;;;;;4.80;4.15;;;;;;;;;;5035934;28;20210;-55
2021/12/02 13:30:48;;;;;;;8.63;4.88;;;;;;;;;;5035499;28;20356;-54
2021/12/02 13:33:16;;;;;;;5.45;4.28;;;;;;;;;;5035265;28;20232;-57
2021/12/02 13:35:44;;;;;;;5.80;4.00;;;;;;;;;;5035337;28;20241;-57
2021/12/02 13:38:12;;;;;;;6.43;3.60;;;;;;;;;;5035524;28;20210;-52
2021/12/02 13:40:41;;;;;;;4.30;3.58;;;;;;;;;;5034854;28;20198;-55
2021/12/02 13:43:09;;;;;;;5.65;4.10;;;;;;;;;;5034560;28;20771;-54
2021/12/02 13:45:37;;;;;;;5.95;2.97;;;;;;;;;;5035245;28;20261;-54
2021/12/02 13:48:11;;;;;;;5.85;3.92;;;;;;;;;;5034878;28;20202;-54
2021/12/02 13:50:40;;;;;;;8.05;3.83;;;;;;;;;;5035282;28;20206;-54
2021/12/02 13:53:09;;;;;;;5.05;4.15;;;;;;;;;;5035227;28;20225;-55
2021/12/02 13:55:38;;;;;;;6.35;3.90;;;;;;;;;;5035323;28;20252;-55
2021/12/02 13:58:09;;;;;;;4.93;4.10;;;;;;;;;;5034672;28;20237;-54
2021/12/02 14:00:37;;;;;;;6.43;4.43;;;;;;;;;;5035113;28;20206;-51
2021/12/02 14:03:06;;;;;;;7.15;4.28;;;;;;;;;;5034587;28;20226;-52
2021/12/02 14:05:35;;;;;;;5.20;3.90;;;;;;;;;;5035096;28;20199;-55
2021/12/02 14:08:04;;;;;;;5.22;3.78;;;;;;;;;;5035201;28;20206;-55
2021/12/02 14:10:34;;;;;;;5.15;3.90;;;;;;;;;;5034236;28;20229;-54
2021/12/02 14:13:02;;;;;;;4.20;3.83;;;;;;;;;;5034170;28;20222;-52
2021/12/02 14:15:30;;;;;;;9.50;4.80;;;;;;;;;;5034582;28;20211;-54
2021/12/02 14:17:58;;;;;;;5.45;3.58;;;;;;;;;;5035345;28;20221;-54
2021/12/02 14:20:27;;;;;;;7.53;4.50;;;;;;;;;;5034869;28;20198;-55
2021/12/02 14:22:57;;;;;;;8.27;4.80;;;;;;;;;;5034790;28;20234;-54
2021/12/02 14:25:27;;;;;;;8.55;4.32;;;;;;;;;;5034814;28;20292;-53
2021/12/02 14:28:12;;;;;;;5.07;4.15;;;;;;;;;;5035830;28;20183;-56
2021/12/02 14:30:40;;;;;;;4.68;3.25;;;;;;;;;;5034958;28;20213;-55
2021/12/02 14:33:09;;;;;;;7.10;4.80;;;;;;;;;;5034494;28;20226;-55
2021/12/02 14:35:47;;;;;;;5.97;4.80;;;;;;;;;;5034119;28;20226;-55
2021/12/02 14:38:18;;;;;;;4.22;3.50;;;;;;;;;;5035272;28;20206;-55
2021/12/02 14:40:47;;;;;;;5.05;2.60;;;;;;;;;;5034509;28;20202;-55
2021/12/02 14:43:20;;;;;;;4.93;2.50;;;;;;;;;;5034208;28;20317;-55
2021/12/02 14:45:48;;;;;;;4.10;2.30;;;;;;;;;;5034047;28;20199;-55
2021/12/02 14:48:26;;;;;;;5.15;2.25;;;;;;;;;;5034293;28;20213;-54
2021/12/02 14:51:05;;;;;;;2.35;1.88;;;;;;;;;;5035714;28;20276;-55
2021/12/02 14:53:33;;;;;;;4.55;2.00;;;;;;;;;;5035223;28;20222;-55
2021/12/02 14:56:05;;;;;;;6.50;2.03;;;;;;;;;;5035370;28;20208;-55
2021/12/02 14:58:35;;;;;;;4.38;1.80;;;;;;;;;;5035078;28;20187;-55
2021/12/02 15:01:12;;;;;;;2.35;1.52;;;;;;;;;;5033942;28;20549;-54
2021/12/02 15:03:40;;;;;;;1.50;1.40;;;;;;;;;;5033837;28;20206;-55